createdAt,value
2019-04-14T00:01:08.547Z,-1.70
2019-04-14T00:04:01.500Z,-1.70
2019-04-14T00:06:30.838Z,-1.80
2019-04-14T00:08:58.696Z,-1.80
2019-04-14T00:11:26.564Z,-1.90
2019-04-14T00:13:54.890Z,-1.90
2019-04-14T00:16:23.083Z,-1.90
2019-04-14T00:18:51.318Z,-2.00
2019-04-14T00:21:19.911Z,-2.00
2019-04-14T00:23:48.118Z,-2.00
2019-04-14T00:26:29.336Z,-2.00
2019-04-14T00:28:57.878Z,-2.00
2019-04-14T00:31:26.327Z,-2.00
2019-04-14T00:33:56.351Z,-2.00
2019-04-14T00:36:43.774Z,-2.10
2019-04-14T00:39:25.058Z,-2.10
2019-04-14T00:42:02.126Z,-2.10
2019-04-14T00:44:47.809Z,-2.10
2019-04-14T00:47:22.163Z,-2.20
2019-04-14T00:49:50.887Z,-2.20
2019-04-14T00:52:19.018Z,-2.20
2019-04-14T00:54:47.772Z,-2.30
2019-04-14T00:57:16.343Z,-2.30
2019-04-14T00:59:44.164Z,-2.30
2019-04-14T01:02:12.403Z,-2.40
2019-04-14T01:04:40.504Z,-2.40
2019-04-14T01:07:08.714Z,-2.40
2019-04-14T01:09:36.965Z,-2.50
2019-04-14T01:12:05.975Z,-2.50
2019-04-14T01:14:34.232Z,-2.50
2019-04-14T01:17:02.757Z,-2.50
2019-04-14T01:19:33.003Z,-2.50
2019-04-14T01:22:01.262Z,-2.60
2019-04-14T01:24:29.274Z,-2.60
2019-04-14T01:26:57.583Z,-2.60
2019-04-14T01:29:25.534Z,-2.70
2019-04-14T01:31:53.680Z,-2.70
2019-04-14T01:34:21.721Z,-2.70
2019-04-14T01:36:49.713Z,-2.70
2019-04-14T01:39:17.678Z,-2.80
2019-04-14T01:41:45.650Z,-2.80
2019-04-14T01:44:13.567Z,-2.80
2019-04-14T01:46:41.436Z,-2.80
2019-04-14T01:49:11.502Z,-2.80
2019-04-14T01:51:48.470Z,-2.90
2019-04-14T01:54:40.959Z,-2.90
2019-04-14T01:57:28.488Z,-2.90
2019-04-14T01:59:58.859Z,-2.90
2019-04-14T02:02:27.193Z,-3.00
2019-04-14T02:04:55.333Z,-3.00
2019-04-14T02:07:23.400Z,-3.00
2019-04-14T02:09:51.251Z,-3.10
2019-04-14T02:12:19.372Z,-3.10
2019-04-14T02:14:47.613Z,-3.10
2019-04-14T02:17:15.507Z,-3.20
2019-04-14T02:19:43.894Z,-3.20
2019-04-14T02:22:11.736Z,-3.30
2019-04-14T02:24:39.595Z,-3.30
2019-04-14T02:27:07.742Z,-3.30
2019-04-14T02:29:36.263Z,-3.30
2019-04-14T02:35:02.165Z,-3.40
2019-04-14T02:37:34.907Z,-3.40
2019-04-14T02:40:00.676Z,-3.40
2019-04-14T02:42:37.058Z,-3.40
2019-04-14T02:45:05.545Z,-3.50
2019-04-14T02:50:07.993Z,-3.50
2019-04-14T02:54:59.686Z,-3.50
2019-04-14T02:57:30.405Z,-3.60
2019-04-14T03:02:44.283Z,-3.50
2019-04-14T03:05:01.822Z,-3.50
2019-04-14T03:07:37.828Z,-3.40
2019-04-14T03:09:53.740Z,-3.40
2019-04-14T03:12:34.402Z,-3.30
2019-04-14T03:15:03.617Z,-3.10
2019-04-14T03:17:58.515Z,-3.00
2019-04-14T03:20:22.885Z,-3.00
2019-04-14T03:22:53.604Z,-2.90
2019-04-14T03:25:35.196Z,-2.80
2019-04-14T03:28:27.886Z,-2.80
2019-04-14T03:31:25.522Z,-2.70
2019-04-14T03:36:16.901Z,-2.50
2019-04-14T03:38:45.202Z,-2.40
2019-04-14T03:41:06.777Z,-2.20
2019-04-14T03:43:39.183Z,-2.10
2019-04-14T03:48:52.290Z,-1.90
2019-04-14T03:51:00.352Z,-1.80
2019-04-14T03:53:26.250Z,-1.80
2019-04-14T03:56:10.167Z,-1.80
2019-04-14T03:58:36.043Z,-1.70
2019-04-14T04:01:06.182Z,-1.60
2019-04-14T04:03:34.598Z,-1.60
2019-04-14T04:06:03.193Z,-1.50
2019-04-14T04:08:31.284Z,-1.50
2019-04-14T04:10:59.774Z,-1.40
2019-04-14T04:13:28.085Z,-1.30
2019-04-14T04:16:11.465Z,-1.20
2019-04-14T04:18:52.685Z,-1.20
2019-04-14T04:21:37.931Z,-1.10
2019-04-14T04:24:30.599Z,-1.10
2019-04-14T04:27:09.026Z,-1.10
2019-04-14T04:29:57.028Z,-1.00
2019-04-14T04:32:44.787Z,-0.90
2019-04-14T04:35:30.853Z,-0.80
2019-04-14T04:38:11.799Z,-0.80
2019-04-14T04:40:39.759Z,-0.70
2019-04-14T04:43:07.974Z,-0.60
2019-04-14T04:45:36.550Z,-0.60
2019-04-14T04:48:04.602Z,-0.60
2019-04-14T04:50:32.761Z,-0.50
2019-04-14T04:53:00.592Z,-0.40
2019-04-14T04:55:28.686Z,-0.50
2019-04-14T04:57:56.811Z,-0.40
2019-04-14T05:00:24.625Z,-0.50
2019-04-14T05:02:52.702Z,-0.40
2019-04-14T05:05:57.913Z,-0.40
2019-04-14T05:08:26.275Z,-0.30
2019-04-14T05:11:01.112Z,-0.40
2019-04-14T05:13:33.640Z,-0.20
2019-04-14T05:16:04.207Z,-0.10
2019-04-14T05:18:33.587Z,0.00
2019-04-14T05:21:01.761Z,-0.10
2019-04-14T05:23:29.942Z,-0.10
2019-04-14T05:26:00.452Z,-0.20
2019-04-14T05:28:28.848Z,0.00
2019-04-14T05:30:56.947Z,0.10
2019-04-14T05:33:25.082Z,0.20
2019-04-14T05:35:53.212Z,0.40
2019-04-14T05:38:21.169Z,0.40
2019-04-14T05:40:51.686Z,0.50
2019-04-14T05:43:32.261Z,0.50
2019-04-14T05:45:50.165Z,0.70
2019-04-14T05:48:18.263Z,0.90
2019-04-14T05:50:46.877Z,0.90
2019-04-14T05:53:15.382Z,0.90
2019-04-14T05:55:43.843Z,1.00
2019-04-14T05:58:12.203Z,1.00
2019-04-14T06:00:42.265Z,1.00
2019-04-14T06:03:10.375Z,1.20
2019-04-14T06:05:38.303Z,1.40
2019-04-14T06:08:06.138Z,1.50
2019-04-14T06:10:34.292Z,1.50
2019-04-14T06:13:02.362Z,1.60
2019-04-14T06:15:30.545Z,1.80
2019-04-14T06:17:58.408Z,2.00
2019-04-14T06:20:26.219Z,2.30
2019-04-14T06:22:54.050Z,2.50
2019-04-14T06:25:21.912Z,2.60
2019-04-14T06:27:49.677Z,2.90
2019-04-14T06:30:36.108Z,3.00
2019-04-14T06:33:10.935Z,3.20
2019-04-14T06:35:58.673Z,3.50
2019-04-14T06:38:29.878Z,3.60
2019-04-14T06:41:00.967Z,3.70
2019-04-14T06:43:28.770Z,3.80
2019-04-14T06:45:57.194Z,4.00
2019-04-14T06:48:25.113Z,4.10
2019-04-14T06:50:52.916Z,4.20
2019-04-14T06:53:20.716Z,4.20
2019-04-14T06:55:48.854Z,4.20
2019-04-14T06:58:17.049Z,4.30
2019-04-14T07:00:44.817Z,4.60
2019-04-14T07:03:12.656Z,4.70
2019-04-14T07:05:40.483Z,4.70
2019-04-14T07:08:08.744Z,4.60
2019-04-14T07:10:36.614Z,4.50
2019-04-14T07:13:04.648Z,4.30
2019-04-14T07:15:32.746Z,4.20
2019-04-14T07:18:00.571Z,4.10
2019-04-14T07:20:28.350Z,4.00
2019-04-14T07:22:56.195Z,4.10
2019-04-14T07:25:23.975Z,4.20
2019-04-14T07:27:51.802Z,4.40
2019-04-14T07:30:37.455Z,4.60
2019-04-14T07:33:23.691Z,4.60
2019-04-14T07:36:11.307Z,4.60
2019-04-14T07:38:45.023Z,4.60
2019-04-14T07:41:27.937Z,4.70
2019-04-14T07:44:15.217Z,4.70
2019-04-14T07:46:48.993Z,4.70
2019-04-14T07:49:24.950Z,4.80
2019-04-14T07:52:24.831Z,5.00
2019-04-14T07:55:27.664Z,5.10
2019-04-14T07:58:03.161Z,5.10
2019-04-14T08:00:34.048Z,5.20
2019-04-14T08:03:15.142Z,5.30
2019-04-14T08:05:42.932Z,5.50
2019-04-14T08:08:10.752Z,5.70
2019-04-14T08:10:38.952Z,5.70
2019-04-14T08:13:06.903Z,5.70
2019-04-14T08:15:34.896Z,5.80
2019-04-14T08:18:02.707Z,5.90
2019-04-14T08:20:30.584Z,6.10
2019-04-14T08:22:58.385Z,6.30
2019-04-14T08:25:26.186Z,6.40
2019-04-14T08:27:54.050Z,6.50
2019-04-14T08:30:21.919Z,6.60
2019-04-14T08:32:49.752Z,6.80
2019-04-14T08:35:17.643Z,7.00
2019-04-14T08:37:45.438Z,7.20
2019-04-14T08:40:15.804Z,7.50
2019-04-14T08:42:54.196Z,7.50
2019-04-14T08:45:31.908Z,7.40
2019-04-14T08:48:19.482Z,7.30
2019-04-14T08:51:02.353Z,7.30
2019-04-14T08:53:37.899Z,7.30
2019-04-14T08:56:23.593Z,7.40
2019-04-14T08:59:06.240Z,7.50
2019-04-14T09:01:53.278Z,7.70
2019-04-14T09:04:36.161Z,7.70
2019-04-14T09:07:29.642Z,7.50
2019-04-14T09:10:03.184Z,7.60
2019-04-14T09:12:37.502Z,7.70
2019-04-14T09:15:06.360Z,7.90
2019-04-14T09:17:34.172Z,8.20
2019-04-14T09:20:03.414Z,8.40
2019-04-14T09:22:31.724Z,8.60
2019-04-14T09:25:00.091Z,8.60
2019-04-14T09:27:27.898Z,8.60
2019-04-14T09:29:55.725Z,8.60
2019-04-14T09:32:24.461Z,8.60
2019-04-14T09:34:54.939Z,8.80
2019-04-14T09:37:23.081Z,9.00
2019-04-14T09:39:50.972Z,8.80
2019-04-14T09:42:18.857Z,8.50
2019-04-14T09:44:46.626Z,8.30
2019-04-14T09:47:14.428Z,8.20
2019-04-14T09:49:42.337Z,8.20
2019-04-14T09:52:10.184Z,8.10
2019-04-14T09:54:37.988Z,8.00
2019-04-14T09:57:05.900Z,7.90
2019-04-14T09:59:34.301Z,7.80
2019-04-14T10:02:02.259Z,7.70
2019-04-14T10:04:30.481Z,7.70
2019-04-14T10:06:58.325Z,7.70
2019-04-14T10:09:26.385Z,7.60
2019-04-14T10:11:56.525Z,7.60
2019-04-14T10:14:24.497Z,7.50
2019-04-14T10:16:52.315Z,7.50
2019-04-14T10:19:20.198Z,7.60
2019-04-14T10:21:48.065Z,7.60
2019-04-14T10:24:15.899Z,7.70
2019-04-14T10:26:43.882Z,7.60
2019-04-14T10:29:11.656Z,7.60
2019-04-14T10:31:39.461Z,7.70
2019-04-14T10:34:09.830Z,7.80
2019-04-14T10:36:36.883Z,8.00
2019-04-14T10:39:06.607Z,8.20
2019-04-14T10:41:34.424Z,8.20
2019-04-14T10:44:02.423Z,8.30
2019-04-14T10:46:30.343Z,8.30
2019-04-14T10:49:00.482Z,8.10
2019-04-14T10:51:30.258Z,8.00
2019-04-14T10:53:57.917Z,8.10
2019-04-14T10:56:26.198Z,8.20
2019-04-14T10:58:54.006Z,8.50
2019-04-14T11:01:21.983Z,8.70
2019-04-14T11:03:49.892Z,8.60
2019-04-14T11:06:29.300Z,8.70
2019-04-14T11:08:57.112Z,8.70
2019-04-14T11:11:24.929Z,8.90
2019-04-14T11:13:52.850Z,8.90
2019-04-14T11:16:23.328Z,8.90
2019-04-14T11:18:51.157Z,9.00
2019-04-14T11:21:19.218Z,9.20
2019-04-14T11:23:47.116Z,9.20
2019-04-14T11:26:14.920Z,9.40
2019-04-14T11:28:42.700Z,9.40
2019-04-14T11:31:12.296Z,9.40
2019-04-14T11:34:01.627Z,9.40
2019-04-14T11:36:47.582Z,9.50
2019-04-14T11:39:15.972Z,9.40
2019-04-14T11:41:44.299Z,9.30
2019-04-14T11:44:12.125Z,9.10
2019-04-14T11:46:40.033Z,9.00
2019-04-14T11:49:08.254Z,9.00
2019-04-14T11:51:36.132Z,8.90
2019-04-14T11:54:04.034Z,8.80
2019-04-14T11:56:32.039Z,8.80
2019-04-14T11:59:00.160Z,8.70
2019-04-14T12:01:47.513Z,8.60
2019-04-14T12:04:41.002Z,8.70
2019-04-14T12:07:31.078Z,8.80
2019-04-14T12:10:07.720Z,8.90
2019-04-14T12:12:35.710Z,9.30
2019-04-14T12:15:04.397Z,9.30
2019-04-14T12:17:32.244Z,9.30
2019-04-14T12:20:00.104Z,9.10
2019-04-14T12:22:28.176Z,9.30
2019-04-14T12:24:56.080Z,9.20
2019-04-14T12:27:23.888Z,9.10
2019-04-14T12:29:52.251Z,9.10
2019-04-14T12:32:21.042Z,9.10
2019-04-14T12:34:48.903Z,9.20
2019-04-14T12:37:16.767Z,9.20
2019-04-14T12:39:44.908Z,9.20
2019-04-14T12:42:37.924Z,9.30
2019-04-14T12:45:27.056Z,9.40
2019-04-14T12:48:16.962Z,9.40
2019-04-14T12:50:54.150Z,9.50
2019-04-14T12:53:22.048Z,9.60
2019-04-14T12:55:50.082Z,9.50
2019-04-14T12:58:19.314Z,9.40
2019-04-14T13:00:53.800Z,9.70
2019-04-14T13:03:22.472Z,9.80
2019-04-14T13:05:50.330Z,9.80
2019-04-14T13:08:18.162Z,9.80
2019-04-14T13:10:45.970Z,9.90
2019-04-14T13:13:13.794Z,10.00
2019-04-14T13:15:41.659Z,10.00
2019-04-14T13:18:09.647Z,10.00
2019-04-14T13:20:37.457Z,9.80
2019-04-14T13:23:05.949Z,9.60
2019-04-14T13:25:33.806Z,9.50
2019-04-14T13:28:01.623Z,9.50
2019-04-14T13:30:38.066Z,9.30
2019-04-14T13:33:05.883Z,9.40
2019-04-14T13:35:33.799Z,9.50
2019-04-14T13:38:01.694Z,9.60
2019-04-14T13:40:29.496Z,9.60
2019-04-14T13:42:57.329Z,9.50
2019-04-14T13:45:25.100Z,9.60
2019-04-14T13:47:52.954Z,9.80
2019-04-14T13:50:20.834Z,9.80
2019-04-14T13:52:48.637Z,9.80
2019-04-14T13:55:16.716Z,9.70
2019-04-14T13:57:44.620Z,9.80
2019-04-14T14:00:13.637Z,10.00
2019-04-14T14:02:41.782Z,10.00
2019-04-14T14:05:09.754Z,10.00
2019-04-14T14:07:37.628Z,9.80
2019-04-14T14:10:06.001Z,9.60
2019-04-14T14:12:41.795Z,9.60
2019-04-14T14:15:27.596Z,9.70
2019-04-14T14:18:13.345Z,9.70
2019-04-14T14:20:50.902Z,9.80
2019-04-14T14:23:28.256Z,9.60
2019-04-14T14:26:00.362Z,9.60
2019-04-14T14:28:28.401Z,9.80
2019-04-14T14:30:56.225Z,9.80
2019-04-14T14:33:24.014Z,9.80
2019-04-14T14:35:52.264Z,9.80
2019-04-14T14:38:20.228Z,9.80
2019-04-14T14:40:49.259Z,9.70
2019-04-14T14:43:17.753Z,9.60
2019-04-14T14:46:10.900Z,9.70
2019-04-14T14:48:47.473Z,9.90
2019-04-14T14:51:29.218Z,9.90
2019-04-14T14:53:56.991Z,9.90
2019-04-14T14:56:24.919Z,9.80
2019-04-14T14:58:52.761Z,10.00
2019-04-14T15:01:20.646Z,10.00
2019-04-14T15:03:48.466Z,10.20
2019-04-14T15:06:16.282Z,10.30
2019-04-14T15:08:44.099Z,10.40
2019-04-14T15:11:12.238Z,10.40
2019-04-14T15:13:40.039Z,10.30
2019-04-14T15:16:07.980Z,10.40
2019-04-14T15:18:35.833Z,10.50
2019-04-14T15:21:03.758Z,10.40
2019-04-14T15:23:31.579Z,10.30
2019-04-14T15:25:59.543Z,10.20
2019-04-14T15:28:27.432Z,10.00
2019-04-14T15:30:55.231Z,9.90
2019-04-14T15:33:23.145Z,10.00
2019-04-14T15:35:50.905Z,10.20
2019-04-14T15:38:18.780Z,10.20
2019-04-14T15:40:46.588Z,10.20
2019-04-14T15:43:14.367Z,10.00
2019-04-14T15:45:42.243Z,10.10
2019-04-14T15:48:10.041Z,10.40
2019-04-14T15:50:37.844Z,10.40
2019-04-14T15:53:05.669Z,10.30
2019-04-14T15:55:33.563Z,10.20
2019-04-14T15:58:06.667Z,10.30
2019-04-14T16:00:52.165Z,10.20
2019-04-14T16:03:42.012Z,10.30
2019-04-14T16:06:27.694Z,10.30
2019-04-14T16:09:03.687Z,10.40
2019-04-14T16:11:48.911Z,10.30
2019-04-14T16:14:24.197Z,10.20
2019-04-14T16:17:10.060Z,10.00
2019-04-14T16:19:51.524Z,9.90
2019-04-14T16:22:19.360Z,9.90
2019-04-14T16:24:47.157Z,10.00
2019-04-14T16:27:37.265Z,10.10
2019-04-14T16:30:25.800Z,10.00
2019-04-14T16:33:11.176Z,10.00
2019-04-14T16:35:39.033Z,10.10
2019-04-14T16:38:06.851Z,10.10
2019-04-14T16:40:35.322Z,10.00
2019-04-14T16:43:03.226Z,10.00
2019-04-14T16:45:31.051Z,9.90
2019-04-14T16:47:58.927Z,9.80
2019-04-14T16:50:26.778Z,9.60
2019-04-14T16:52:59.107Z,9.80
2019-04-14T16:55:32.409Z,9.90
2019-04-14T16:58:18.165Z,9.80
2019-04-14T17:00:49.914Z,9.80
2019-04-14T17:03:17.778Z,9.90
2019-04-14T17:05:45.586Z,9.70
2019-04-14T17:08:13.435Z,9.70
2019-04-14T17:10:41.283Z,9.70
2019-04-14T17:13:09.140Z,9.60
2019-04-14T17:16:08.350Z,9.70
2019-04-14T17:18:44.153Z,9.60
2019-04-14T17:21:22.471Z,9.60
2019-04-14T17:23:54.838Z,9.60
2019-04-14T17:26:36.277Z,9.60
2019-04-14T17:29:22.199Z,9.50
2019-04-14T17:32:21.274Z,9.50
2019-04-14T17:35:14.156Z,9.30
2019-04-14T17:38:10.411Z,9.20
2019-04-14T17:41:03.207Z,9.10
2019-04-14T17:43:41.093Z,9.10
2019-04-14T17:46:26.734Z,9.00
2019-04-14T17:49:25.688Z,8.90
2019-04-14T17:52:11.304Z,8.90
2019-04-14T17:55:01.224Z,8.80
2019-04-14T17:57:47.327Z,8.70
2019-04-14T18:00:33.477Z,8.70
2019-04-14T18:03:18.866Z,8.60
2019-04-14T18:05:50.240Z,8.50
2019-04-14T18:08:28.381Z,8.50
2019-04-14T18:11:30.410Z,8.40
2019-04-14T18:14:20.493Z,8.20
2019-04-14T18:17:15.497Z,8.20
2019-04-14T18:19:49.346Z,8.00
2019-04-14T18:22:17.196Z,7.90
2019-04-14T18:24:44.967Z,7.80
2019-04-14T18:27:13.784Z,7.70
2019-04-14T18:30:01.069Z,7.50
2019-04-14T18:32:46.306Z,7.40
2019-04-14T18:35:36.928Z,7.30
2019-04-14T18:38:12.225Z,7.20
2019-04-14T18:40:49.182Z,7.00
2019-04-14T18:43:36.841Z,6.80
2019-04-14T18:46:19.625Z,6.70
2019-04-14T18:48:51.186Z,6.50
2019-04-14T18:51:33.985Z,6.30
2019-04-14T18:54:29.895Z,6.20
2019-04-14T18:57:28.817Z,6.10
2019-04-14T19:00:18.963Z,6.00
2019-04-14T19:02:46.785Z,5.80
2019-04-14T19:05:14.632Z,5.70
2019-04-14T19:07:42.430Z,5.60
2019-04-14T19:10:10.420Z,5.50
2019-04-14T19:12:42.810Z,5.40
2019-04-14T19:15:42.188Z,5.30
2019-04-14T19:18:31.314Z,5.20
2019-04-14T19:21:07.813Z,5.00
2019-04-14T19:23:35.620Z,4.90
2019-04-14T19:26:03.750Z,4.80
2019-04-14T19:28:31.706Z,4.70
2019-04-14T19:30:59.555Z,4.70
2019-04-14T19:33:27.330Z,4.60
2019-04-14T19:35:55.252Z,4.50
2019-04-14T19:38:23.107Z,4.50
2019-04-14T19:40:51.003Z,4.40
2019-04-14T19:43:23.876Z,4.30
2019-04-14T19:45:49.332Z,4.30
2019-04-14T19:48:17.245Z,4.20
2019-04-14T19:50:45.039Z,4.10
2019-04-14T19:53:12.863Z,4.00
2019-04-14T19:55:40.684Z,3.90
2019-04-14T19:58:08.543Z,3.90
2019-04-14T20:00:36.362Z,3.90
2019-04-14T20:03:04.260Z,3.80
2019-04-14T20:05:32.053Z,3.80
2019-04-14T20:07:59.865Z,3.70
2019-04-14T20:10:27.677Z,3.60
2019-04-14T20:12:55.451Z,3.50
2019-04-14T20:15:26.658Z,3.40
2019-04-14T20:18:02.976Z,3.40
2019-04-14T20:20:48.159Z,3.40
2019-04-14T20:23:41.156Z,3.50
2019-04-14T20:26:31.058Z,3.40
2019-04-14T20:29:08.739Z,3.40
2019-04-14T20:31:39.210Z,3.30
2019-04-14T20:34:07.439Z,3.30
2019-04-14T20:36:35.373Z,3.30
2019-04-14T20:39:05.505Z,3.20
2019-04-14T20:41:33.304Z,3.20
2019-04-14T20:44:01.929Z,3.10
2019-04-14T20:46:30.232Z,3.10
2019-04-14T20:48:58.031Z,3.00
2019-04-14T20:51:25.930Z,2.90
2019-04-14T20:53:53.716Z,2.90
2019-04-14T20:56:21.611Z,2.90
2019-04-14T20:58:49.436Z,2.80
2019-04-14T21:01:17.990Z,2.70
2019-04-14T21:04:03.928Z,2.60
2019-04-14T21:06:54.044Z,2.50
2019-04-14T21:09:35.514Z,2.50
2019-04-14T21:12:08.827Z,2.40
2019-04-14T21:15:05.046Z,2.30
2019-04-14T21:17:39.716Z,2.20
2019-04-14T21:20:20.180Z,2.10
2019-04-14T21:23:06.206Z,2.00
2019-04-14T21:26:00.245Z,1.90
2019-04-14T21:28:25.205Z,1.90
2019-04-14T21:31:07.954Z,1.70
2019-04-14T21:34:06.999Z,1.70
2019-04-14T21:36:41.952Z,1.60
2019-04-14T21:39:35.013Z,1.40
2019-04-14T21:42:02.900Z,1.40
2019-04-14T21:44:30.699Z,1.30
2019-04-14T21:46:58.471Z,1.20
2019-04-14T21:49:26.456Z,1.10
2019-04-14T21:52:12.109Z,1.10
2019-04-14T21:54:41.962Z,1.00
2019-04-14T21:57:38.123Z,1.00
2019-04-14T22:00:40.172Z,0.90
2019-04-14T22:03:45.100Z,0.90
2019-04-14T22:06:16.595Z,0.80
2019-04-14T22:08:47.795Z,0.70
2019-04-14T22:11:18.382Z,0.70
2019-04-14T22:13:46.543Z,0.60
2019-04-14T22:16:14.962Z,0.50
2019-04-14T22:18:42.793Z,0.40
2019-04-14T22:21:10.654Z,0.30
2019-04-14T22:23:38.928Z,0.30
2019-04-14T22:26:06.847Z,0.40
2019-04-14T22:28:34.618Z,0.40
2019-04-14T22:31:02.424Z,0.30
2019-04-14T22:33:30.597Z,0.30
2019-04-14T22:35:58.523Z,0.30
2019-04-14T22:38:26.726Z,0.30
2019-04-14T22:40:54.673Z,0.30
2019-04-14T22:43:22.605Z,0.30
2019-04-14T22:45:50.477Z,0.20
2019-04-14T22:48:18.802Z,0.20
2019-04-14T22:50:46.632Z,0.20
2019-04-14T22:53:14.451Z,0.10
2019-04-14T22:55:42.266Z,0.10
2019-04-14T22:58:10.108Z,0.00
2019-04-14T23:00:51.078Z,0.00
2019-04-14T23:03:36.873Z,-0.10
2019-04-14T23:06:20.062Z,-0.10
2019-04-14T23:09:07.665Z,-0.20
2019-04-14T23:11:54.445Z,-0.20
2019-04-14T23:14:31.148Z,-0.20
2019-04-14T23:17:17.339Z,-0.30
2019-04-14T23:19:52.834Z,-0.30
2019-04-14T23:22:31.416Z,-0.40
2019-04-14T23:24:59.322Z,-0.40
2019-04-14T23:27:27.098Z,-0.50
2019-04-14T23:29:54.920Z,-0.50
2019-04-14T23:32:23.417Z,-0.50
2019-04-14T23:34:51.209Z,-0.60
2019-04-14T23:37:19.083Z,-0.60
2019-04-14T23:39:46.904Z,-0.60
2019-04-14T23:42:14.681Z,-0.60
2019-04-14T23:44:42.517Z,-0.70
2019-04-14T23:47:10.296Z,-0.70
2019-04-14T23:49:38.290Z,-0.80
2019-04-14T23:52:06.083Z,-0.70
2019-04-14T23:54:33.868Z,-0.80
2019-04-14T23:57:05.973Z,-0.80
2019-04-14T23:59:31.285Z,-0.80
